sensor_id;sensor_type;location;lat;lon;timestamp;pressure;altitude;pressure_sealevel;temperature;humidity
9325;BME280;4701;51.566;6.776;2023-02-15T07:02:46;102465.28;;;-2.07;100.00
9325;BME280;4701;51.566;6.776;2023-02-15T07:04:48;102465.56;;;-2.00;100.00
9325;BME280;4701;51.566;6.776;2023-02-15T07:06:50;102461.31;;;-1.93;100.00
9325;BME280;4701;51.566;6.776;2023-02-15T07:08:51;102464.69;;;-1.81;100.00
9325;BME280;4701;51.566;6.776;2023-02-15T07:10:54;102468.19;;;-1.71;100.00
9325;BME280;4701;51.566;6.776;2023-02-15T07:13:17;102467.16;;;-1.61;100.00
9325;BME280;4701;51.566;6.776;2023-02-15T07:15:19;102459.09;;;-1.51;100.00
9325;BME280;4701;51.566;6.776;2023-02-15T07:17:22;102448.53;;;-1.43;100.00
9325;BME280;4701;51.566;6.776;2023-02-15T07:19:25;102449.47;;;-1.34;100.00
9325;BME280;4701;51.566;6.776;2023-02-15T07:21:27;102450.41;;;-1.26;100.00
9325;BME280;4701;51.566;6.776;2023-02-15T07:23:29;102450.38;;;-1.16;100.00
9325;BME280;4701;51.566;6.776;2023-02-15T07:25:31;102444.41;;;-1.10;100.00
9325;BME280;4701;51.566;6.776;2023-02-15T07:27:33;102440.19;;;-1.03;100.00
9325;BME280;4701;51.566;6.776;2023-02-15T07:29:35;102436.19;;;-0.99;100.00
9325;BME280;4701;51.566;6.776;2023-02-15T07:31:36;102438.97;;;-0.91;100.00
9325;BME280;4701;51.566;6.776;2023-02-15T07:33:38;102436.53;;;-0.84;100.00
9325;BME280;4701;51.566;6.776;2023-02-15T07:35:47;102428.75;;;-0.78;100.00
9325;BME280;4701;51.566;6.776;2023-02-15T07:37:49;102426.59;;;-0.74;100.00
9325;BME280;4701;51.566;6.776;2023-02-15T07:39:53;102417.44;;;-0.71;100.00
9325;BME280;4701;51.566;6.776;2023-02-15T07:41:55;102420.34;;;-0.65;100.00
9325;BME280;4701;51.566;6.776;2023-02-15T07:44:04;102416.59;;;-0.54;100.00
9325;BME280;4701;51.566;6.776;2023-02-15T07:46:07;102410.81;;;-0.42;100.00
9325;BME280;4701;51.566;6.776;2023-02-15T07:48:10;102414.75;;;-0.36;100.00
9325;BME280;4701;51.566;6.776;2023-02-15T07:50:12;102414.66;;;-0.26;100.00
9325;BME280;4701;51.566;6.776;2023-02-15T07:52:15;102418.91;;;-0.16;100.00
9325;BME280;4701;51.566;6.776;2023-02-15T07:54:17;102408.78;;;-0.04;100.00
9325;BME280;4701;51.566;6.776;2023-02-15T07:56:19;102412.06;;;0.08;100.00
9325;BME280;4701;51.566;6.776;2023-02-15T07:58:20;102404.44;;;0.21;100.00
9325;BME280;4701;51.566;6.776;2023-02-15T08:00:42;102409.03;;;0.70;100.00
9325;BME280;4701;51.566;6.776;2023-02-15T08:03:02;102413.91;;;1.09;100.00
9325;BME280;4701;51.566;6.776;2023-02-15T08:05:16;102400.66;;;1.32;100.00
9325;BME280;4701;51.566;6.776;2023-02-15T08:07:20;102405.06;;;1.49;100.00
9325;BME280;4701;51.566;6.776;2023-02-15T08:09:22;102399.53;;;1.50;100.00
9325;BME280;4701;51.566;6.776;2023-02-15T08:11:25;102393.31;;;1.74;100.00
9325;BME280;4701;51.566;6.776;2023-02-15T08:13:29;102383.22;;;1.93;100.00
9325;BME280;4701;51.566;6.776;2023-02-15T08:15:31;102393.22;;;2.23;100.00
9325;BME280;4701;51.566;6.776;2023-02-15T08:17:35;102386.47;;;2.43;100.00
9325;BME280;4701;51.566;6.776;2023-02-15T08:19:37;102388.03;;;2.69;100.00
9325;BME280;4701;51.566;6.776;2023-02-15T08:21:41;102379.00;;;2.92;99.80
9325;BME280;4701;51.566;6.776;2023-02-15T08:23:45;102384.19;;;3.02;98.40
9325;BME280;4701;51.566;6.776;2023-02-15T08:25:47;102371.63;;;3.17;97.02
9325;BME280;4701;51.566;6.776;2023-02-15T08:27:49;102378.47;;;3.28;95.87
9325;BME280;4701;51.566;6.776;2023-02-15T08:29:51;102385.13;;;3.40;94.88
9325;BME280;4701;51.566;6.776;2023-02-15T08:31:54;102371.44;;;3.41;94.48
9325;BME280;4701;51.566;6.776;2023-02-15T08:33:59;102372.53;;;3.55;94.04
9325;BME280;4701;51.566;6.776;2023-02-15T08:36:05;102368.25;;;3.61;94.01
9325;BME280;4701;51.566;6.776;2023-02-15T08:38:08;102382.53;;;3.84;93.73
9325;BME280;4701;51.566;6.776;2023-02-15T08:40:11;102373.34;;;3.78;92.14
9325;BME280;4701;51.566;6.776;2023-02-15T08:42:14;102367.03;;;3.86;91.80
9325;BME280;4701;51.566;6.776;2023-02-15T08:44:17;102370.47;;;3.95;91.55
9325;BME280;4701;51.566;6.776;2023-02-15T08:46:21;102369.66;;;3.94;90.23
9325;BME280;4701;51.566;6.776;2023-02-15T08:48:23;102367.09;;;4.15;89.99
9325;BME280;4701;51.566;6.776;2023-02-15T08:50:25;102365.13;;;4.24;89.11
9325;BME280;4701;51.566;6.776;2023-02-15T08:52:27;102364.88;;;4.34;88.91
9325;BME280;4701;51.566;6.776;2023-02-15T08:54:28;102366.50;;;4.35;87.87
9325;BME280;4701;51.566;6.776;2023-02-15T08:56:35;102362.34;;;4.32;87.52
9325;BME280;4701;51.566;6.776;2023-02-15T08:58:38;102361.00;;;4.43;86.79
9325;BME280;4701;51.566;6.776;2023-02-15T09:00:39;102354.13;;;4.55;87.73
9325;BME280;4701;51.566;6.776;2023-02-15T09:02:41;102359.06;;;4.66;86.77
9325;BME280;4701;51.566;6.776;2023-02-15T09:04:43;102357.81;;;4.69;85.71
9325;BME280;4701;51.566;6.776;2023-02-15T09:10:27;102352.91;;;4.72;83.53
9325;BME280;4701;51.566;6.776;2023-02-15T09:12:30;102353.03;;;4.85;83.96
9325;BME280;4701;51.566;6.776;2023-02-15T09:14:32;102352.13;;;4.93;83.15
9325;BME280;4701;51.566;6.776;2023-02-15T09:16:36;102355.91;;;4.99;83.43
9325;BME280;4701;51.566;6.776;2023-02-15T09:18:38;102347.94;;;5.12;81.87
9325;BME280;4701;51.566;6.776;2023-02-15T09:20:40;102347.06;;;5.26;82.08
9325;BME280;4701;51.566;6.776;2023-02-15T09:22:42;102347.19;;;5.39;81.78
9325;BME280;4701;51.566;6.776;2023-02-15T09:24:43;102335.59;;;5.45;82.02
9325;BME280;4701;51.566;6.776;2023-02-15T09:26:48;102350.78;;;5.46;80.70
9325;BME280;4701;51.566;6.776;2023-02-15T09:28:53;102347.69;;;5.49;80.18
9325;BME280;4701;51.566;6.776;2023-02-15T09:30:56;102355.81;;;5.49;79.11
9325;BME280;4701;51.566;6.776;2023-02-15T09:32:57;102350.97;;;5.66;79.50
9325;BME280;4701;51.566;6.776;2023-02-15T09:34:59;102351.47;;;5.76;79.63
9325;BME280;4701;51.566;6.776;2023-02-15T09:37:01;102347.03;;;5.90;78.18
9325;BME280;4701;51.566;6.776;2023-02-15T09:39:07;102343.88;;;5.86;77.41
9325;BME280;4701;51.566;6.776;2023-02-15T09:41:27;102352.25;;;5.91;76.92
9325;BME280;4701;51.566;6.776;2023-02-15T09:43:39;102353.59;;;6.02;76.74
9325;BME280;4701;51.566;6.776;2023-02-15T09:45:58;102352.81;;;6.15;75.56
9325;BME280;4701;51.566;6.776;2023-02-15T09:48:26;102345.50;;;6.08;75.16
9325;BME280;4701;51.566;6.776;2023-02-15T09:50:38;102352.28;;;6.26;75.87
9325;BME280;4701;51.566;6.776;2023-02-15T09:55:21;102337.03;;;6.59;75.29
9325;BME280;4701;51.566;6.776;2023-02-15T09:57:29;102351.91;;;6.70;74.93
9325;BME280;4701;51.566;6.776;2023-02-15T09:59:39;102352.94;;;6.75;74.39
9325;BME280;4701;51.566;6.776;2023-02-15T10:01:52;102348.16;;;6.71;73.29
9325;BME280;4701;51.566;6.776;2023-02-15T10:04:08;102341.94;;;6.90;73.96
9325;BME280;4701;51.566;6.776;2023-02-15T10:11:18;102338.84;;;7.06;70.74
9325;BME280;4701;51.566;6.776;2023-02-15T10:13:47;102345.81;;;7.29;72.01
9325;BME280;4701;51.566;6.776;2023-02-15T10:16:09;102347.53;;;7.56;71.65
9325;BME280;4701;51.566;6.776;2023-02-15T10:18:37;102338.31;;;7.77;70.74
9325;BME280;4701;51.566;6.776;2023-02-15T10:20:49;102345.63;;;7.76;69.33
9325;BME280;4701;51.566;6.776;2023-02-15T10:23:10;102335.19;;;7.93;69.62
9325;BME280;4701;51.566;6.776;2023-02-15T10:25:30;102338.31;;;7.96;67.97
9325;BME280;4701;51.566;6.776;2023-02-15T10:27:35;102346.25;;;7.91;67.62
9325;BME280;4701;51.566;6.776;2023-02-15T10:29:44;102338.31;;;7.96;67.39
9325;BME280;4701;51.566;6.776;2023-02-15T10:31:53;102332.66;;;8.11;67.75
9325;BME280;4701;51.566;6.776;2023-02-15T10:34:14;102336.84;;;8.33;67.28
9325;BME280;4701;51.566;6.776;2023-02-15T10:36:27;102338.25;;;8.29;65.53
9325;BME280;4701;51.566;6.776;2023-02-15T10:38:35;102327.19;;;8.18;66.15
9325;BME280;4701;51.566;6.776;2023-02-15T10:40:46;102335.97;;;8.26;65.63
9325;BME280;4701;51.566;6.776;2023-02-15T10:43:05;102329.06;;;8.37;65.55
9325;BME280;4701;51.566;6.776;2023-02-15T10:45:19;102326.94;;;8.59;66.29
9325;BME280;4701;51.566;6.776;2023-02-15T10:47:43;102323.09;;;8.73;64.08
9325;BME280;4701;51.566;6.776;2023-02-15T10:50:16;102323.63;;;8.88;64.79
9325;BME280;4701;51.566;6.776;2023-02-15T10:52:29;102323.22;;;8.91;63.29
9325;BME280;4701;51.566;6.776;2023-02-15T10:54:42;102317.56;;;8.93;62.69
9325;BME280;4701;51.566;6.776;2023-02-15T10:56:52;102317.72;;;8.98;62.52
9325;BME280;4701;51.566;6.776;2023-02-15T10:59:11;102310.56;;;9.03;62.18
9325;BME280;4701;51.566;6.776;2023-02-15T11:01:19;102310.72;;;9.15;62.64
9325;BME280;4701;51.566;6.776;2023-02-15T11:03:36;102307.56;;;9.18;61.94
9325;BME280;4701;51.566;6.776;2023-02-15T11:05:45;102306.59;;;9.37;62.57
9325;BME280;4701;51.566;6.776;2023-02-15T11:07:56;102305.38;;;9.33;62.46
9325;BME280;4701;51.566;6.776;2023-02-15T11:10:07;102302.03;;;9.56;60.96
9325;BME280;4701;51.566;6.776;2023-02-15T11:12:18;102311.72;;;9.52;60.61
9325;BME280;4701;51.566;6.776;2023-02-15T11:14:30;102312.50;;;9.59;61.30
9325;BME280;4701;51.566;6.776;2023-02-15T11:16:38;102307.44;;;9.63;60.89
9325;BME280;4701;51.566;6.776;2023-02-15T11:18:45;102305.44;;;9.52;60.81
9325;BME280;4701;51.566;6.776;2023-02-15T11:20:55;102296.38;;;9.58;60.97
9325;BME280;4701;51.566;6.776;2023-02-15T11:22:58;102303.84;;;9.87;61.25
9325;BME280;4701;51.566;6.776;2023-02-15T11:25:10;102305.41;;;10.01;60.60
9325;BME280;4701;51.566;6.776;2023-02-15T11:27:20;102305.91;;;9.92;59.95
9325;BME280;4701;51.566;6.776;2023-02-15T11:29:27;102306.84;;;10.04;59.13
9325;BME280;4701;51.566;6.776;2023-02-15T11:31:37;102306.31;;;10.13;59.50
9325;BME280;4701;51.566;6.776;2023-02-15T11:33:46;102297.56;;;10.30;60.56
9325;BME280;4701;51.566;6.776;2023-02-15T11:35:55;102303.72;;;10.43;58.77
9325;BME280;4701;51.566;6.776;2023-02-15T11:38:03;102298.50;;;10.42;59.22
9325;BME280;4701;51.566;6.776;2023-02-15T11:40:17;102302.03;;;10.60;58.54
9325;BME280;4701;51.566;6.776;2023-02-15T11:42:21;102294.84;;;10.66;57.59
9325;BME280;4701;51.566;6.776;2023-02-15T11:44:29;102289.47;;;10.59;58.19
9325;BME280;4701;51.566;6.776;2023-02-15T11:46:33;102293.34;;;10.82;58.96
9325;BME280;4701;51.566;6.776;2023-02-15T11:48:35;102280.88;;;11.04;58.03
9325;BME280;4701;51.566;6.776;2023-02-15T11:50:37;102282.44;;;11.12;57.41
9325;BME280;4701;51.566;6.776;2023-02-15T11:52:41;102275.09;;;11.24;58.45
9325;BME280;4701;51.566;6.776;2023-02-15T11:54:45;102281.06;;;11.21;56.26
9325;BME280;4701;51.566;6.776;2023-02-15T11:56:47;102272.75;;;11.27;57.01
9325;BME280;4701;51.566;6.776;2023-02-15T11:58:53;102275.03;;;11.30;56.08
9325;BME280;4701;51.566;6.776;2023-02-15T12:01:01;102265.91;;;11.36;56.11
9325;BME280;4701;51.566;6.776;2023-02-15T12:03:11;102265.44;;;11.51;56.02
9325;BME280;4701;51.566;6.776;2023-02-15T12:05:17;102262.25;;;12.01;55.70
9325;BME280;4701;51.566;6.776;2023-02-15T12:07:22;102258.75;;;12.40;54.05
9325;BME280;4701;51.566;6.776;2023-02-15T12:09:33;102253.69;;;12.89;53.60
9325;BME280;4701;51.566;6.776;2023-02-15T12:11:38;102242.19;;;13.71;51.72
9325;BME280;4701;51.566;6.776;2023-02-15T12:13:54;102240.53;;;13.86;48.58
9325;BME280;4701;51.566;6.776;2023-02-15T12:15:58;102238.88;;;13.85;49.41
9325;BME280;4701;51.566;6.776;2023-02-15T12:18:18;102222.56;;;13.95;48.89
9325;BME280;4701;51.566;6.776;2023-02-15T12:20:28;102230.06;;;14.44;48.14
9325;BME280;4701;51.566;6.776;2023-02-15T12:22:32;102226.56;;;14.75;47.29
9325;BME280;4701;51.566;6.776;2023-02-15T12:24:44;102226.28;;;15.30;46.05
9325;BME280;4701;51.566;6.776;2023-02-15T12:26:56;102230.69;;;15.63;45.94
9325;BME280;4701;51.566;6.776;2023-02-15T12:29:00;102222.13;;;15.28;45.46
9325;BME280;4701;51.566;6.776;2023-02-15T12:31:09;102225.41;;;15.99;45.59
9325;BME280;4701;51.566;6.776;2023-02-15T12:33:26;102214.28;;;16.31;42.50
9325;BME280;4701;51.566;6.776;2023-02-15T12:35:31;102224.03;;;16.01;40.63
9325;BME280;4701;51.566;6.776;2023-02-15T12:37:33;102221.03;;;16.75;40.25
9325;BME280;4701;51.566;6.776;2023-02-15T12:39:37;102218.34;;;17.26;39.24
9325;BME280;4701;51.566;6.776;2023-02-15T12:42:01;102207.28;;;16.80;38.98
9325;BME280;4701;51.566;6.776;2023-02-15T12:44:06;102205.94;;;16.98;39.84
9325;BME280;4701;51.566;6.776;2023-02-15T12:46:20;102201.25;;;17.29;40.00
9325;BME280;4701;51.566;6.776;2023-02-15T12:48:23;102186.09;;;18.31;38.43
9325;BME280;4701;51.566;6.776;2023-02-15T12:50:24;102197.63;;;19.26;35.16
9325;BME280;4701;51.566;6.776;2023-02-15T12:52:28;102193.69;;;20.14;34.65
9325;BME280;4701;51.566;6.776;2023-02-15T12:54:36;102191.97;;;21.17;32.78
9325;BME280;4701;51.566;6.776;2023-02-15T12:56:40;102190.53;;;20.45;31.53
9325;BME280;4701;51.566;6.776;2023-02-15T12:58:42;102187.53;;;20.97;31.29
9325;BME280;4701;51.566;6.776;2023-02-15T13:00:46;102185.63;;;22.04;30.12
9325;BME280;4701;51.566;6.776;2023-02-15T13:02:51;102180.19;;;22.98;29.94
9325;BME280;4701;51.566;6.776;2023-02-15T13:04:55;102173.25;;;22.73;28.44
9325;BME280;4701;51.566;6.776;2023-02-15T13:07:00;102175.50;;;23.52;28.32
9325;BME280;4701;51.566;6.776;2023-02-15T13:09:07;102171.84;;;22.98;28.12
9325;BME280;4701;51.566;6.776;2023-02-15T13:11:20;102171.22;;;21.28;29.81
9325;BME280;4701;51.566;6.776;2023-02-15T13:13:25;102172.22;;;21.65;29.99
9325;BME280;4701;51.566;6.776;2023-02-15T13:15:32;102163.03;;;21.04;30.30
9325;BME280;4701;51.566;6.776;2023-02-15T13:17:35;102157.38;;;22.02;29.18
9325;BME280;4701;51.566;6.776;2023-02-15T13:19:41;102157.34;;;22.15;29.76
9325;BME280;4701;51.566;6.776;2023-02-15T13:21:46;102146.41;;;22.33;29.41
9325;BME280;4701;51.566;6.776;2023-02-15T13:23:51;102138.69;;;22.79;29.20
9325;BME280;4701;51.566;6.776;2023-02-15T13:25:54;102133.31;;;23.36;28.62
9325;BME280;4701;51.566;6.776;2023-02-15T13:28:02;102132.91;;;22.98;28.60
9325;BME280;4701;51.566;6.776;2023-02-15T13:30:23;102120.22;;;22.25;27.70
9325;BME280;4701;51.566;6.776;2023-02-15T13:32:29;102125.03;;;22.33;29.46
9325;BME280;4701;51.566;6.776;2023-02-15T13:34:34;102118.59;;;21.56;29.28
9325;BME280;4701;51.566;6.776;2023-02-15T13:36:49;102121.59;;;20.81;31.13
9325;BME280;4701;51.566;6.776;2023-02-15T13:39:10;102121.41;;;20.58;31.33
9325;BME280;4701;51.566;6.776;2023-02-15T13:41:20;102127.72;;;19.79;31.80
9325;BME280;4701;51.566;6.776;2023-02-15T13:43:35;102115.81;;;19.25;32.70
9325;BME280;4701;51.566;6.776;2023-02-15T13:45:57;102115.22;;;19.05;33.28
9325;BME280;4701;51.566;6.776;2023-02-15T13:48:13;102114.13;;;19.01;34.59
9325;BME280;4701;51.566;6.776;2023-02-15T13:50:32;102112.03;;;18.87;33.02
9325;BME280;4701;51.566;6.776;2023-02-15T13:52:42;102109.91;;;18.74;33.22
9325;BME280;4701;51.566;6.776;2023-02-15T13:55:03;102100.41;;;19.72;32.94
9325;BME280;4701;51.566;6.776;2023-02-15T13:57:27;102108.59;;;20.01;30.66
9325;BME280;4701;51.566;6.776;2023-02-15T13:59:51;102102.91;;;19.92;31.91
9325;BME280;4701;51.566;6.776;2023-02-15T14:02:11;102103.91;;;20.76;30.09
9325;BME280;4701;51.566;6.776;2023-02-15T14:04:31;102100.91;;;21.79;28.95
9325;BME280;4701;51.566;6.776;2023-02-15T14:06:47;102094.44;;;21.70;28.30
9325;BME280;4701;51.566;6.776;2023-02-15T14:09:06;102096.47;;;21.78;29.06
9325;BME280;4701;51.566;6.776;2023-02-15T14:11:18;102095.47;;;21.74;29.89
9325;BME280;4701;51.566;6.776;2023-02-15T14:13:55;102103.53;;;20.83;30.61
9325;BME280;4701;51.566;6.776;2023-02-15T14:16:03;102092.97;;;20.10;31.47
9325;BME280;4701;51.566;6.776;2023-02-15T14:18:20;102105.16;;;19.90;31.10
9325;BME280;4701;51.566;6.776;2023-02-15T14:20:36;102096.28;;;19.17;32.14
9325;BME280;4701;51.566;6.776;2023-02-15T14:22:44;102103.38;;;18.16;33.13
9325;BME280;4701;51.566;6.776;2023-02-15T14:24:59;102092.50;;;17.91;36.23
9325;BME280;4701;51.566;6.776;2023-02-15T14:27:13;102096.28;;;17.10;34.91
9325;BME280;4701;51.566;6.776;2023-02-15T14:29:28;102097.44;;;16.84;36.02
9325;BME280;4701;51.566;6.776;2023-02-15T14:31:35;102100.38;;;16.52;36.50
9325;BME280;4701;51.566;6.776;2023-02-15T14:33:42;102096.44;;;15.97;38.04
9325;BME280;4701;51.566;6.776;2023-02-15T14:35:44;102095.56;;;15.92;37.95
9325;BME280;4701;51.566;6.776;2023-02-15T14:37:51;102085.06;;;15.78;39.74
9325;BME280;4701;51.566;6.776;2023-02-15T14:39:58;102093.69;;;15.45;39.02
9325;BME280;4701;51.566;6.776;2023-02-15T14:42:25;102084.47;;;15.19;39.75
9325;BME280;4701;51.566;6.776;2023-02-15T14:44:31;102084.28;;;15.31;40.54
9325;BME280;4701;51.566;6.776;2023-02-15T14:46:42;102090.41;;;15.48;39.45
9325;BME280;4701;51.566;6.776;2023-02-15T14:48:51;102090.28;;;15.28;39.22
9325;BME280;4701;51.566;6.776;2023-02-15T14:50:53;102080.63;;;15.20;39.25
9325;BME280;4701;51.566;6.776;2023-02-15T14:55:36;102068.97;;;14.66;40.47
9325;BME280;4701;51.566;6.776;2023-02-15T14:57:38;102074.47;;;14.39;41.18
9325;BME280;4701;51.566;6.776;2023-02-15T14:59:43;102074.84;;;14.48;41.86
9325;BME280;4701;51.566;6.776;2023-02-15T15:01:56;102078.75;;;14.30;41.87
9325;BME280;4701;51.566;6.776;2023-02-15T15:04:02;102071.78;;;14.17;42.76
9325;BME280;4701;51.566;6.776;2023-02-15T15:06:06;102074.34;;;14.02;42.62
9325;BME280;4701;51.566;6.776;2023-02-15T15:08:22;102074.34;;;14.02;43.55
9325;BME280;4701;51.566;6.776;2023-02-15T15:10:39;102066.00;;;13.92;42.47
9325;BME280;4701;51.566;6.776;2023-02-15T15:12:42;102077.47;;;13.89;43.83
9325;BME280;4701;51.566;6.776;2023-02-15T15:14:44;102072.38;;;13.97;44.04
9325;BME280;4701;51.566;6.776;2023-02-15T15:16:48;102073.66;;;14.12;43.57
9325;BME280;4701;51.566;6.776;2023-02-15T15:18:51;102078.22;;;14.06;43.14
9325;BME280;4701;51.566;6.776;2023-02-15T15:20:54;102073.91;;;13.88;42.63
9325;BME280;4701;51.566;6.776;2023-02-15T15:25:42;102077.88;;;14.24;42.88
9325;BME280;4701;51.566;6.776;2023-02-15T15:27:48;102082.88;;;14.32;41.17
9325;BME280;4701;51.566;6.776;2023-02-15T15:29:51;102076.47;;;14.22;40.54
9325;BME280;4701;51.566;6.776;2023-02-15T15:31:55;102078.09;;;14.18;41.31
9325;BME280;4701;51.566;6.776;2023-02-15T15:34:22;102071.69;;;14.12;41.26
9325;BME280;4701;51.566;6.776;2023-02-15T15:36:54;102072.75;;;14.33;41.78
9325;BME280;4701;51.566;6.776;2023-02-15T15:39:15;102080.72;;;14.08;40.79
9325;BME280;4701;51.566;6.776;2023-02-15T15:41:32;102074.16;;;14.09;41.23
9325;BME280;4701;51.566;6.776;2023-02-15T15:43:54;102076.09;;;13.86;41.73
9325;BME280;4701;51.566;6.776;2023-02-15T15:46:41;102068.38;;;13.61;41.87
9325;BME280;4701;51.566;6.776;2023-02-15T15:48:45;102075.06;;;13.49;42.72
9325;BME280;4701;51.566;6.776;2023-02-15T15:54:31;102082.78;;;13.13;44.32
9325;BME280;4701;51.566;6.776;2023-02-15T15:56:34;102069.72;;;13.04;44.85
9325;BME280;4701;51.566;6.776;2023-02-15T15:58:42;102083.59;;;12.97;45.03
9325;BME280;4701;51.566;6.776;2023-02-15T16:00:47;102080.22;;;12.90;45.16
9325;BME280;4701;51.566;6.776;2023-02-15T16:02:51;102084.44;;;12.81;45.55
9325;BME280;4701;51.566;6.776;2023-02-15T16:04:53;102082.34;;;12.71;45.56
9325;BME280;4701;51.566;6.776;2023-02-15T16:06:56;102081.34;;;12.61;46.15
9325;BME280;4701;51.566;6.776;2023-02-15T16:09:10;102072.66;;;12.47;46.31
9325;BME280;4701;51.566;6.776;2023-02-15T16:11:16;102076.63;;;12.39;47.03
9325;BME280;4701;51.566;6.776;2023-02-15T16:13:23;102074.53;;;12.30;47.39
9325;BME280;4701;51.566;6.776;2023-02-15T16:15:34;102087.69;;;12.16;47.77
9325;BME280;4701;51.566;6.776;2023-02-15T16:17:36;102077.69;;;12.10;47.78
9325;BME280;4701;51.566;6.776;2023-02-15T16:19:39;102086.44;;;11.95;48.34
9325;BME280;4701;51.566;6.776;2023-02-15T16:21:41;102085.16;;;11.86;48.82
9325;BME280;4701;51.566;6.776;2023-02-15T16:23:59;102087.31;;;11.72;49.39
9325;BME280;4701;51.566;6.776;2023-02-15T16:26:09;102079.38;;;11.59;50.20
9325;BME280;4701;51.566;6.776;2023-02-15T16:28:18;102080.59;;;11.52;50.55
9325;BME280;4701;51.566;6.776;2023-02-15T16:30:24;102087.03;;;11.46;51.22
9325;BME280;4701;51.566;6.776;2023-02-15T16:32:27;102087.63;;;11.36;51.47
9325;BME280;4701;51.566;6.776;2023-02-15T16:34:29;102086.09;;;11.28;51.82
9325;BME280;4701;51.566;6.776;2023-02-15T16:36:32;102086.69;;;11.19;52.16
9325;BME280;4701;51.566;6.776;2023-02-15T16:41:11;102080.75;;;10.98;53.17
9325;BME280;4701;51.566;6.776;2023-02-15T16:43:18;102074.72;;;10.96;53.20
9325;BME280;4701;51.566;6.776;2023-02-15T16:45:24;102075.31;;;10.87;53.96
9325;BME280;4701;51.566;6.776;2023-02-15T16:47:30;102079.56;;;10.83;54.38
9325;BME280;4701;51.566;6.776;2023-02-15T16:49:34;102080.72;;;10.75;54.52
9325;BME280;4701;51.566;6.776;2023-02-15T16:51:35;102074.78;;;10.67;55.36
9325;BME280;4701;51.566;6.776;2023-02-15T16:53:37;102078.25;;;10.62;55.67
9325;BME280;4701;51.566;6.776;2023-02-15T16:55:40;102086.50;;;10.55;55.82
9325;BME280;4701;51.566;6.776;2023-02-15T16:57:43;102076.31;;;10.51;56.08
9325;BME280;4701;51.566;6.776;2023-02-15T16:59:47;102080.44;;;10.42;56.08
9325;BME280;4701;51.566;6.776;2023-02-15T17:01:50;102086.00;;;10.35;56.43
9325;BME280;4701;51.566;6.776;2023-02-15T17:04:12;102097.56;;;10.31;56.80
9325;BME280;4701;51.566;6.776;2023-02-15T17:06:22;102098.97;;;10.21;56.71
9325;BME280;4701;51.566;6.776;2023-02-15T17:08:30;102101.34;;;10.18;57.29
9325;BME280;4701;51.566;6.776;2023-02-15T17:10:36;102099.50;;;10.12;57.93
9325;BME280;4701;51.566;6.776;2023-02-15T17:12:45;102097.47;;;10.07;57.91
9325;BME280;4701;51.566;6.776;2023-02-15T17:14:54;102096.28;;;10.03;58.94
9325;BME280;4701;51.566;6.776;2023-02-15T17:17:01;102086.50;;;9.96;60.56
9325;BME280;4701;51.566;6.776;2023-02-15T17:19:09;102092.25;;;9.87;59.81
9325;BME280;4701;51.566;6.776;2023-02-15T17:21:17;102095.56;;;9.78;60.97
9325;BME280;4701;51.566;6.776;2023-02-15T17:23:22;102090.16;;;9.71;61.90
9325;BME280;4701;51.566;6.776;2023-02-15T17:25:34;102089.41;;;9.64;62.56
9325;BME280;4701;51.566;6.776;2023-02-15T17:27:37;102093.72;;;9.54;61.60
9325;BME280;4701;51.566;6.776;2023-02-15T17:29:41;102099.34;;;9.40;61.83
9325;BME280;4701;51.566;6.776;2023-02-15T17:31:48;102095.69;;;9.28;62.62
9325;BME280;4701;51.566;6.776;2023-02-15T17:33:52;102096.44;;;9.17;62.85
9325;BME280;4701;51.566;6.776;2023-02-15T17:36:07;102104.88;;;9.09;63.18
9325;BME280;4701;51.566;6.776;2023-02-15T17:38:17;102106.22;;;9.00;63.43
9325;BME280;4701;51.566;6.776;2023-02-15T17:40:25;102114.50;;;8.87;63.80
9325;BME280;4701;51.566;6.776;2023-02-15T17:42:27;102104.66;;;8.86;65.37
9325;BME280;4701;51.566;6.776;2023-02-15T17:44:29;102107.09;;;8.94;65.61
9325;BME280;4701;51.566;6.776;2023-02-15T17:46:34;102109.59;;;8.95;64.76
9325;BME280;4701;51.566;6.776;2023-02-15T17:48:41;102113.16;;;8.96;65.29
9325;BME280;4701;51.566;6.776;2023-02-15T17:50:43;102113.16;;;8.96;65.39
9325;BME280;4701;51.566;6.776;2023-02-15T17:52:45;102119.22;;;8.98;64.85
9325;BME280;4701;51.566;6.776;2023-02-15T17:54:47;102110.44;;;8.96;65.36
9325;BME280;4701;51.566;6.776;2023-02-15T17:57:12;102126.97;;;8.94;65.41
9325;BME280;4701;51.566;6.776;2023-02-15T17:59:14;102119.00;;;8.99;65.71
9325;BME280;4701;51.566;6.776;2023-02-15T18:01:17;102121.22;;;9.09;65.22
9325;BME280;4701;51.566;6.776;2023-02-15T18:03:42;102115.84;;;9.21;65.06
9325;BME280;4701;51.566;6.776;2023-02-15T18:06:03;102117.09;;;9.25;65.16
9325;BME280;4701;51.566;6.776;2023-02-15T18:08:27;102117.00;;;9.31;65.34
9325;BME280;4701;51.566;6.776;2023-02-15T18:10:46;102117.63;;;9.33;65.21
9325;BME280;4701;51.566;6.776;2023-02-15T18:13:06;102115.78;;;9.27;64.80
9325;BME280;4701;51.566;6.776;2023-02-15T18:15:08;102116.88;;;9.26;65.44
9325;BME280;4701;51.566;6.776;2023-02-15T18:17:13;102119.28;;;9.34;65.27
9325;BME280;4701;51.566;6.776;2023-02-15T18:19:18;102110.94;;;9.29;65.39
9325;BME280;4701;51.566;6.776;2023-02-15T18:21:21;102114.97;;;9.27;65.13
9325;BME280;4701;51.566;6.776;2023-02-15T18:23:26;102117.31;;;9.23;67.11
9325;BME280;4701;51.566;6.776;2023-02-15T18:25:28;102117.59;;;9.15;66.94
9325;BME280;4701;51.566;6.776;2023-02-15T18:27:30;102110.63;;;9.19;67.04
9325;BME280;4701;51.566;6.776;2023-02-15T18:29:32;102119.88;;;9.18;66.87
9325;BME280;4701;51.566;6.776;2023-02-15T18:31:34;102118.78;;;9.19;67.15
9325;BME280;4701;51.566;6.776;2023-02-15T18:33:38;102116.53;;;9.16;67.81
9325;BME280;4701;51.566;6.776;2023-02-15T18:35:42;102116.13;;;9.13;67.29
9325;BME280;4701;51.566;6.776;2023-02-15T18:37:44;102112.88;;;9.04;66.81
9325;BME280;4701;51.566;6.776;2023-02-15T18:39:47;102109.59;;;8.95;67.03
9325;BME280;4701;51.566;6.776;2023-02-15T18:41:49;102113.66;;;8.86;67.22
9325;BME280;4701;51.566;6.776;2023-02-15T18:43:51;102117.47;;;8.79;67.35
9325;BME280;4701;51.566;6.776;2023-02-15T18:45:54;102110.63;;;8.76;67.10
9325;BME280;4701;51.566;6.776;2023-02-15T18:47:57;102108.34;;;8.73;67.33
9325;BME280;4701;51.566;6.776;2023-02-15T18:49:58;102113.16;;;8.71;67.61
9325;BME280;4701;51.566;6.776;2023-02-15T18:52:02;102114.66;;;8.67;67.25
9325;BME280;4701;51.566;6.776;2023-02-15T18:54:04;102118.66;;;8.64;67.28
9325;BME280;4701;51.566;6.776;2023-02-15T18:56:10;102118.84;;;8.63;67.19